sensor_id;sensor_type;location;lat;lon;timestamp;P1;durP1;ratioP1;P2;durP2;ratioP2
6420;SDS011;3243;50.958;7.012;2022-10-16T00:01:26;4.17;;;3.27;;
6420;SDS011;3243;50.958;7.012;2022-10-16T00:03:57;3.40;;;2.90;;
6420;SDS011;3243;50.958;7.012;2022-10-16T00:06:25;4.97;;;2.60;;
6420;SDS011;3243;50.958;7.012;2022-10-16T00:08:52;3.70;;;2.60;;
6420;SDS011;3243;50.958;7.012;2022-10-16T00:11:27;5.67;;;2.40;;
6420;SDS011;3243;50.958;7.012;2022-10-16T00:14:06;4.50;;;2.50;;
6420;SDS011;3243;50.958;7.012;2022-10-16T00:16:34;3.93;;;2.40;;
6420;SDS011;3243;50.958;7.012;2022-10-16T00:19:01;3.73;;;2.53;;
6420;SDS011;3243;50.958;7.012;2022-10-16T00:21:29;4.73;;;2.50;;
6420;SDS011;3243;50.958;7.012;2022-10-16T00:23:57;3.40;;;2.40;;
6420;SDS011;3243;50.958;7.012;2022-10-16T00:26:30;2.20;;;2.00;;
6420;SDS011;3243;50.958;7.012;2022-10-16T00:28:58;2.30;;;2.10;;
6420;SDS011;3243;50.958;7.012;2022-10-16T00:31:26;3.33;;;2.00;;
6420;SDS011;3243;50.958;7.012;2022-10-16T00:33:53;3.67;;;1.80;;
6420;SDS011;3243;50.958;7.012;2022-10-16T00:36:21;2.70;;;2.10;;
6420;SDS011;3243;50.958;7.012;2022-10-16T00:38:50;3.23;;;2.50;;
6420;SDS011;3243;50.958;7.012;2022-10-16T00:41:22;3.57;;;2.30;;
6420;SDS011;3243;50.958;7.012;2022-10-16T00:43:54;2.10;;;1.90;;
6420;SDS011;3243;50.958;7.012;2022-10-16T00:46:29;3.80;;;1.97;;
6420;SDS011;3243;50.958;7.012;2022-10-16T00:49:09;2.27;;;2.07;;
6420;SDS011;3243;50.958;7.012;2022-10-16T00:51:40;4.90;;;2.17;;
6420;SDS011;3243;50.958;7.012;2022-10-16T00:54:19;2.73;;;2.00;;
6420;SDS011;3243;50.958;7.012;2022-10-16T00:56:48;2.23;;;1.90;;
6420;SDS011;3243;50.958;7.012;2022-10-16T00:59:20;3.10;;;2.00;;
6420;SDS011;3243;50.958;7.012;2022-10-16T01:01:51;4.23;;;2.10;;
6420;SDS011;3243;50.958;7.012;2022-10-16T01:04:19;4.00;;;2.17;;
6420;SDS011;3243;50.958;7.012;2022-10-16T01:20:21;2.23;;;2.03;;
6420;SDS011;3243;50.958;7.012;2022-10-16T01:28:14;4.43;;;2.57;;
6420;SDS011;3243;50.958;7.012;2022-10-16T01:30:44;2.43;;;2.23;;
6420;SDS011;3243;50.958;7.012;2022-10-16T01:33:23;3.43;;;2.10;;
6420;SDS011;3243;50.958;7.012;2022-10-16T01:35:54;2.67;;;1.97;;
6420;SDS011;3243;50.958;7.012;2022-10-16T01:38:29;3.90;;;2.40;;
6420;SDS011;3243;50.958;7.012;2022-10-16T01:46:55;3.60;;;2.20;;
6420;SDS011;3243;50.958;7.012;2022-10-16T01:49:23;4.83;;;2.40;;
6420;SDS011;3243;50.958;7.012;2022-10-16T01:51:54;2.47;;;2.20;;
6420;SDS011;3243;50.958;7.012;2022-10-16T01:54:25;9.97;;;2.77;;
6420;SDS011;3243;50.958;7.012;2022-10-16T01:56:54;2.80;;;2.30;;
6420;SDS011;3243;50.958;7.012;2022-10-16T01:59:23;4.60;;;2.63;;
6420;SDS011;3243;50.958;7.012;2022-10-16T02:01:52;3.77;;;2.53;;
6420;SDS011;3243;50.958;7.012;2022-10-16T02:04:34;4.87;;;2.43;;
6420;SDS011;3243;50.958;7.012;2022-10-16T02:07:09;3.60;;;2.43;;
6420;SDS011;3243;50.958;7.012;2022-10-16T02:09:36;2.60;;;2.40;;
6420;SDS011;3243;50.958;7.012;2022-10-16T02:12:14;3.17;;;2.60;;
6420;SDS011;3243;50.958;7.012;2022-10-16T02:14:47;3.60;;;3.00;;
6420;SDS011;3243;50.958;7.012;2022-10-16T02:17:15;5.43;;;3.00;;
6420;SDS011;3243;50.958;7.012;2022-10-16T02:19:43;5.40;;;3.93;;
6420;SDS011;3243;50.958;7.012;2022-10-16T02:22:30;4.67;;;3.70;;
6420;SDS011;3243;50.958;7.012;2022-10-16T02:27:45;6.30;;;4.60;;
6420;SDS011;3243;50.958;7.012;2022-10-16T02:33:01;5.37;;;4.47;;
6420;SDS011;3243;50.958;7.012;2022-10-16T02:35:31;7.80;;;5.03;;
6420;SDS011;3243;50.958;7.012;2022-10-16T02:37:58;6.43;;;5.03;;
6420;SDS011;3243;50.958;7.012;2022-10-16T02:40:25;8.80;;;5.03;;
6420;SDS011;3243;50.958;7.012;2022-10-16T02:42:53;6.90;;;4.47;;
6420;SDS011;3243;50.958;7.012;2022-10-16T02:45:21;8.43;;;4.80;;
6420;SDS011;3243;50.958;7.012;2022-10-16T02:47:48;5.77;;;4.43;;
6420;SDS011;3243;50.958;7.012;2022-10-16T02:50:15;5.17;;;3.47;;
6420;SDS011;3243;50.958;7.012;2022-10-16T02:52:42;8.10;;;4.27;;
6420;SDS011;3243;50.958;7.012;2022-10-16T02:55:09;4.73;;;3.40;;
6420;SDS011;3243;50.958;7.012;2022-10-16T02:57:36;4.67;;;3.67;;
6420;SDS011;3243;50.958;7.012;2022-10-16T03:00:04;3.40;;;3.10;;
6420;SDS011;3243;50.958;7.012;2022-10-16T03:02:31;4.17;;;3.00;;
6420;SDS011;3243;50.958;7.012;2022-10-16T03:04:57;3.27;;;2.70;;
6420;SDS011;3243;50.958;7.012;2022-10-16T03:07:24;5.37;;;3.00;;
6420;SDS011;3243;50.958;7.012;2022-10-16T03:09:51;5.17;;;3.00;;
6420;SDS011;3243;50.958;7.012;2022-10-16T03:12:18;4.10;;;2.57;;
6420;SDS011;3243;50.958;7.012;2022-10-16T03:14:45;3.60;;;2.80;;
6420;SDS011;3243;50.958;7.012;2022-10-16T03:17:12;3.43;;;2.47;;
6420;SDS011;3243;50.958;7.012;2022-10-16T03:19:39;4.50;;;2.40;;
6420;SDS011;3243;50.958;7.012;2022-10-16T03:22:05;5.10;;;2.50;;
6420;SDS011;3243;50.958;7.012;2022-10-16T03:24:32;3.20;;;2.13;;
6420;SDS011;3243;50.958;7.012;2022-10-16T03:26:59;3.13;;;2.37;;
6420;SDS011;3243;50.958;7.012;2022-10-16T03:29:26;2.30;;;2.10;;
6420;SDS011;3243;50.958;7.012;2022-10-16T03:31:58;2.70;;;2.30;;
6420;SDS011;3243;50.958;7.012;2022-10-16T03:34:25;5.50;;;2.10;;
6420;SDS011;3243;50.958;7.012;2022-10-16T03:36:51;3.83;;;2.20;;
6420;SDS011;3243;50.958;7.012;2022-10-16T03:39:18;4.33;;;2.43;;
6420;SDS011;3243;50.958;7.012;2022-10-16T03:41:45;3.73;;;2.30;;
6420;SDS011;3243;50.958;7.012;2022-10-16T03:44:15;2.63;;;2.03;;
6420;SDS011;3243;50.958;7.012;2022-10-16T03:46:42;3.70;;;2.60;;
6420;SDS011;3243;50.958;7.012;2022-10-16T03:49:08;5.50;;;2.60;;
6420;SDS011;3243;50.958;7.012;2022-10-16T03:51:35;3.07;;;2.30;;
6420;SDS011;3243;50.958;7.012;2022-10-16T03:54:02;6.40;;;2.40;;
6420;SDS011;3243;50.958;7.012;2022-10-16T03:56:29;3.43;;;2.47;;
6420;SDS011;3243;50.958;7.012;2022-10-16T03:58:55;3.60;;;2.77;;
6420;SDS011;3243;50.958;7.012;2022-10-16T04:01:22;2.40;;;2.20;;
6420;SDS011;3243;50.958;7.012;2022-10-16T04:03:49;2.57;;;2.20;;
6420;SDS011;3243;50.958;7.012;2022-10-16T04:06:16;2.60;;;2.40;;
6420;SDS011;3243;50.958;7.012;2022-10-16T04:08:43;2.60;;;2.40;;
6420;SDS011;3243;50.958;7.012;2022-10-16T04:11:10;2.70;;;2.00;;
6420;SDS011;3243;50.958;7.012;2022-10-16T04:13:37;3.10;;;2.03;;
6420;SDS011;3243;50.958;7.012;2022-10-16T04:16:04;3.37;;;2.10;;
6420;SDS011;3243;50.958;7.012;2022-10-16T04:18:30;2.00;;;1.80;;
6420;SDS011;3243;50.958;7.012;2022-10-16T04:21:01;2.10;;;1.90;;
6420;SDS011;3243;50.958;7.012;2022-10-16T04:23:29;2.03;;;1.80;;
6420;SDS011;3243;50.958;7.012;2022-10-16T04:25:56;3.57;;;1.80;;
6420;SDS011;3243;50.958;7.012;2022-10-16T04:28:22;2.03;;;1.73;;
6420;SDS011;3243;50.958;7.012;2022-10-16T04:30:49;3.83;;;1.80;;
6420;SDS011;3243;50.958;7.012;2022-10-16T04:33:16;2.53;;;1.90;;
6420;SDS011;3243;50.958;7.012;2022-10-16T04:35:43;2.40;;;1.90;;
6420;SDS011;3243;50.958;7.012;2022-10-16T04:38:09;1.70;;;1.60;;
6420;SDS011;3243;50.958;7.012;2022-10-16T04:40:36;3.27;;;1.70;;
6420;SDS011;3243;50.958;7.012;2022-10-16T04:43:03;4.87;;;2.00;;
6420;SDS011;3243;50.958;7.012;2022-10-16T04:45:31;2.53;;;1.83;;
6420;SDS011;3243;50.958;7.012;2022-10-16T04:47:58;2.50;;;1.70;;
6420;SDS011;3243;50.958;7.012;2022-10-16T04:50:25;1.90;;;1.73;;
6420;SDS011;3243;50.958;7.012;2022-10-16T04:52:52;2.37;;;1.60;;
6420;SDS011;3243;50.958;7.012;2022-10-16T04:55:18;3.93;;;1.70;;
6420;SDS011;3243;50.958;7.012;2022-10-16T04:57:45;2.63;;;1.80;;
6420;SDS011;3243;50.958;7.012;2022-10-16T05:00:12;3.60;;;2.10;;
6420;SDS011;3243;50.958;7.012;2022-10-16T05:02:39;2.00;;;1.57;;
6420;SDS011;3243;50.958;7.012;2022-10-16T05:05:05;1.50;;;1.40;;
6420;SDS011;3243;50.958;7.012;2022-10-16T05:07:33;1.60;;;1.50;;
6420;SDS011;3243;50.958;7.012;2022-10-16T05:09:59;2.80;;;1.80;;
6420;SDS011;3243;50.958;7.012;2022-10-16T05:12:26;2.43;;;1.80;;
6420;SDS011;3243;50.958;7.012;2022-10-16T05:14:53;2.50;;;1.87;;
6420;SDS011;3243;50.958;7.012;2022-10-16T05:17:24;2.93;;;1.87;;
6420;SDS011;3243;50.958;7.012;2022-10-16T05:19:52;2.30;;;1.70;;
6420;SDS011;3243;50.958;7.012;2022-10-16T05:22:19;1.90;;;1.80;;
6420;SDS011;3243;50.958;7.012;2022-10-16T05:24:45;2.97;;;2.00;;
6420;SDS011;3243;50.958;7.012;2022-10-16T05:27:12;2.10;;;1.90;;
6420;SDS011;3243;50.958;7.012;2022-10-16T05:29:45;3.10;;;1.90;;
6420;SDS011;3243;50.958;7.012;2022-10-16T05:32:16;2.53;;;1.70;;
6420;SDS011;3243;50.958;7.012;2022-10-16T05:34:44;3.80;;;1.83;;
6420;SDS011;3243;50.958;7.012;2022-10-16T05:37:11;1.80;;;1.70;;
6420;SDS011;3243;50.958;7.012;2022-10-16T05:39:38;3.73;;;2.00;;
6420;SDS011;3243;50.958;7.012;2022-10-16T05:42:05;3.67;;;1.80;;
6420;SDS011;3243;50.958;7.012;2022-10-16T05:44:32;1.70;;;1.60;;
6420;SDS011;3243;50.958;7.012;2022-10-16T05:47:03;1.80;;;1.70;;
6420;SDS011;3243;50.958;7.012;2022-10-16T05:49:30;2.77;;;1.93;;
6420;SDS011;3243;50.958;7.012;2022-10-16T05:51:57;3.07;;;1.80;;
6420;SDS011;3243;50.958;7.012;2022-10-16T05:54:24;2.30;;;2.10;;
6420;SDS011;3243;50.958;7.012;2022-10-16T05:56:50;2.17;;;1.73;;
6420;SDS011;3243;50.958;7.012;2022-10-16T05:59:17;3.10;;;1.90;;
6420;SDS011;3243;50.958;7.012;2022-10-16T06:01:44;2.57;;;2.17;;
6420;SDS011;3243;50.958;7.012;2022-10-16T06:04:10;3.73;;;1.77;;
6420;SDS011;3243;50.958;7.012;2022-10-16T06:06:37;4.17;;;1.80;;
6420;SDS011;3243;50.958;7.012;2022-10-16T06:09:04;3.20;;;2.23;;
6420;SDS011;3243;50.958;7.012;2022-10-16T06:11:32;4.20;;;2.03;;
6420;SDS011;3243;50.958;7.012;2022-10-16T06:14:00;2.17;;;1.90;;
6420;SDS011;3243;50.958;7.012;2022-10-16T06:16:33;3.30;;;1.83;;
6420;SDS011;3243;50.958;7.012;2022-10-16T06:19:00;2.20;;;2.00;;
6420;SDS011;3243;50.958;7.012;2022-10-16T06:21:28;2.57;;;2.03;;
6420;SDS011;3243;50.958;7.012;2022-10-16T06:23:55;2.43;;;2.00;;
6420;SDS011;3243;50.958;7.012;2022-10-16T06:26:25;5.77;;;2.33;;
6420;SDS011;3243;50.958;7.012;2022-10-16T06:28:54;3.60;;;2.60;;
6420;SDS011;3243;50.958;7.012;2022-10-16T06:31:22;3.63;;;2.23;;
6420;SDS011;3243;50.958;7.012;2022-10-16T06:33:52;2.97;;;2.20;;
6420;SDS011;3243;50.958;7.012;2022-10-16T06:36:19;2.80;;;2.00;;
6420;SDS011;3243;50.958;7.012;2022-10-16T06:38:46;2.27;;;1.93;;
6420;SDS011;3243;50.958;7.012;2022-10-16T06:41:17;3.77;;;2.43;;
6420;SDS011;3243;50.958;7.012;2022-10-16T06:43:45;2.47;;;2.27;;
6420;SDS011;3243;50.958;7.012;2022-10-16T06:46:13;2.67;;;2.30;;
6420;SDS011;3243;50.958;7.012;2022-10-16T06:48:42;2.30;;;2.10;;
6420;SDS011;3243;50.958;7.012;2022-10-16T06:51:10;2.67;;;2.30;;
6420;SDS011;3243;50.958;7.012;2022-10-16T06:53:42;2.60;;;2.00;;
6420;SDS011;3243;50.958;7.012;2022-10-16T06:56:29;2.50;;;2.17;;
6420;SDS011;3243;50.958;7.012;2022-10-16T06:58:57;2.43;;;2.23;;
6420;SDS011;3243;50.958;7.012;2022-10-16T07:01:25;3.20;;;2.40;;
6420;SDS011;3243;50.958;7.012;2022-10-16T07:03:52;2.23;;;2.03;;
6420;SDS011;3243;50.958;7.012;2022-10-16T07:06:20;3.03;;;2.27;;
6420;SDS011;3243;50.958;7.012;2022-10-16T07:08:49;1.87;;;1.77;;
6420;SDS011;3243;50.958;7.012;2022-10-16T07:11:17;3.00;;;2.23;;
6420;SDS011;3243;50.958;7.012;2022-10-16T07:13:46;3.53;;;2.00;;
6420;SDS011;3243;50.958;7.012;2022-10-16T07:16:20;2.03;;;1.73;;
6420;SDS011;3243;50.958;7.012;2022-10-16T07:18:55;2.13;;;1.80;;
6420;SDS011;3243;50.958;7.012;2022-10-16T07:21:28;3.00;;;1.83;;
6420;SDS011;3243;50.958;7.012;2022-10-16T07:24:02;2.50;;;2.07;;
6420;SDS011;3243;50.958;7.012;2022-10-16T07:26:33;3.87;;;2.07;;
6420;SDS011;3243;50.958;7.012;2022-10-16T07:29:02;3.47;;;1.80;;
6420;SDS011;3243;50.958;7.012;2022-10-16T07:31:30;2.80;;;1.90;;
6420;SDS011;3243;50.958;7.012;2022-10-16T07:33:57;2.33;;;1.80;;
6420;SDS011;3243;50.958;7.012;2022-10-16T07:36:25;1.70;;;1.60;;
6420;SDS011;3243;50.958;7.012;2022-10-16T07:38:53;2.47;;;1.80;;
6420;SDS011;3243;50.958;7.012;2022-10-16T07:41:25;2.83;;;1.70;;
6420;SDS011;3243;50.958;7.012;2022-10-16T07:43:53;3.33;;;1.73;;
6420;SDS011;3243;50.958;7.012;2022-10-16T07:46:21;3.40;;;2.00;;
6420;SDS011;3243;50.958;7.012;2022-10-16T07:48:48;1.97;;;1.80;;
6420;SDS011;3243;50.958;7.012;2022-10-16T07:51:17;2.30;;;1.77;;
6420;SDS011;3243;50.958;7.012;2022-10-16T07:53:45;2.20;;;2.00;;
6420;SDS011;3243;50.958;7.012;2022-10-16T07:56:13;2.53;;;2.10;;
6420;SDS011;3243;50.958;7.012;2022-10-16T07:58:40;2.47;;;1.93;;
6420;SDS011;3243;50.958;7.012;2022-10-16T08:01:11;2.97;;;2.20;;
6420;SDS011;3243;50.958;7.012;2022-10-16T08:03:43;2.70;;;2.10;;
6420;SDS011;3243;50.958;7.012;2022-10-16T08:06:11;5.23;;;2.60;;
6420;SDS011;3243;50.958;7.012;2022-10-16T08:08:38;3.13;;;2.20;;
6420;SDS011;3243;50.958;7.012;2022-10-16T08:11:05;7.90;;;2.30;;
6420;SDS011;3243;50.958;7.012;2022-10-16T08:13:32;2.13;;;1.93;;
6420;SDS011;3243;50.958;7.012;2022-10-16T08:15:59;3.60;;;2.33;;
6420;SDS011;3243;50.958;7.012;2022-10-16T08:18:26;3.87;;;2.33;;
6420;SDS011;3243;50.958;7.012;2022-10-16T08:20:57;4.37;;;2.10;;
6420;SDS011;3243;50.958;7.012;2022-10-16T08:23:26;3.97;;;2.40;;
6420;SDS011;3243;50.958;7.012;2022-10-16T08:25:53;3.17;;;2.00;;
6420;SDS011;3243;50.958;7.012;2022-10-16T08:28:22;4.40;;;2.10;;
6420;SDS011;3243;50.958;7.012;2022-10-16T08:30:49;7.27;;;2.80;;
6420;SDS011;3243;50.958;7.012;2022-10-16T08:33:16;3.17;;;2.17;;
6420;SDS011;3243;50.958;7.012;2022-10-16T08:35:49;2.83;;;1.80;;
6420;SDS011;3243;50.958;7.012;2022-10-16T08:38:17;2.93;;;2.10;;
6420;SDS011;3243;50.958;7.012;2022-10-16T08:40:44;2.60;;;1.60;;
6420;SDS011;3243;50.958;7.012;2022-10-16T08:48:49;1.70;;;1.60;;
6420;SDS011;3243;50.958;7.012;2022-10-16T08:51:24;2.30;;;1.30;;
6420;SDS011;3243;50.958;7.012;2022-10-16T08:54:05;2.77;;;1.43;;
6420;SDS011;3243;50.958;7.012;2022-10-16T08:56:41;1.73;;;1.50;;
6420;SDS011;3243;50.958;7.012;2022-10-16T08:59:10;2.17;;;1.37;;
6420;SDS011;3243;50.958;7.012;2022-10-16T09:01:39;1.80;;;1.43;;
6420;SDS011;3243;50.958;7.012;2022-10-16T09:06:57;3.90;;;1.20;;
6420;SDS011;3243;50.958;7.012;2022-10-16T09:12:27;1.50;;;1.23;;
6420;SDS011;3243;50.958;7.012;2022-10-16T09:15:32;1.70;;;1.10;;
6420;SDS011;3243;50.958;7.012;2022-10-16T09:18:38;1.13;;;1.10;;
6420;SDS011;3243;50.958;7.012;2022-10-16T09:23:35;1.43;;;1.17;;
6420;SDS011;3243;50.958;7.012;2022-10-16T09:26:03;2.87;;;1.30;;
6420;SDS011;3243;50.958;7.012;2022-10-16T09:28:32;1.63;;;1.20;;
6420;SDS011;3243;50.958;7.012;2022-10-16T09:30:59;1.40;;;1.30;;
6420;SDS011;3243;50.958;7.012;2022-10-16T09:33:28;1.93;;;1.27;;
6420;SDS011;3243;50.958;7.012;2022-10-16T09:35:59;1.10;;;1.00;;
6420;SDS011;3243;50.958;7.012;2022-10-16T09:40:57;1.23;;;1.10;;
6420;SDS011;3243;50.958;7.012;2022-10-16T09:48:44;1.63;;;1.23;;
6420;SDS011;3243;50.958;7.012;2022-10-16T09:51:16;1.90;;;1.20;;
6420;SDS011;3243;50.958;7.012;2022-10-16T09:53:47;5.00;;;2.27;;
6420;SDS011;3243;50.958;7.012;2022-10-16T09:56:25;3.90;;;2.27;;
6420;SDS011;3243;50.958;7.012;2022-10-16T09:58:54;2.03;;;1.50;;
6420;SDS011;3243;50.958;7.012;2022-10-16T10:04:20;1.37;;;1.27;;
6420;SDS011;3243;50.958;7.012;2022-10-16T10:06:49;3.67;;;1.30;;
6420;SDS011;3243;50.958;7.012;2022-10-16T10:09:24;2.90;;;1.30;;
6420;SDS011;3243;50.958;7.012;2022-10-16T10:12:03;3.37;;;1.30;;
6420;SDS011;3243;50.958;7.012;2022-10-16T10:36:12;2.43;;;1.83;;
6420;SDS011;3243;50.958;7.012;2022-10-16T10:46:47;1.40;;;1.00;;
6420;SDS011;3243;50.958;7.012;2022-10-16T11:08:39;3.00;;;1.30;;
6420;SDS011;3243;50.958;7.012;2022-10-16T11:14:06;2.43;;;1.10;;
6420;SDS011;3243;50.958;7.012;2022-10-16T11:16:43;1.50;;;1.20;;
6420;SDS011;3243;50.958;7.012;2022-10-16T11:22:18;1.40;;;0.93;;
6420;SDS011;3243;50.958;7.012;2022-10-16T11:25:15;3.17;;;1.13;;
6420;SDS011;3243;50.958;7.012;2022-10-16T11:30:47;1.37;;;1.00;;
6420;SDS011;3243;50.958;7.012;2022-10-16T11:33:32;3.70;;;1.17;;
6420;SDS011;3243;50.958;7.012;2022-10-16T11:41:19;1.13;;;1.00;;
6420;SDS011;3243;50.958;7.012;2022-10-16T11:46:30;2.57;;;1.10;;
6420;SDS011;3243;50.958;7.012;2022-10-16T11:49:21;2.20;;;1.10;;
6420;SDS011;3243;50.958;7.012;2022-10-16T11:57:23;1.95;;;1.08;;
6420;SDS011;3243;50.958;7.012;2022-10-16T11:59:55;1.23;;;1.10;;
6420;SDS011;3243;50.958;7.012;2022-10-16T12:02:46;1.73;;;0.90;;
6420;SDS011;3243;50.958;7.012;2022-10-16T12:05:35;8.97;;;5.00;;
6420;SDS011;3243;50.958;7.012;2022-10-16T12:08:25;4.13;;;2.47;;
6420;SDS011;3243;50.958;7.012;2022-10-16T12:10:53;2.70;;;1.63;;
6420;SDS011;3243;50.958;7.012;2022-10-16T12:18:33;2.50;;;1.57;;
6420;SDS011;3243;50.958;7.012;2022-10-16T12:21:00;3.23;;;1.33;;
6420;SDS011;3243;50.958;7.012;2022-10-16T12:23:32;2.13;;;1.00;;
6420;SDS011;3243;50.958;7.012;2022-10-16T12:26:03;2.33;;;1.20;;
6420;SDS011;3243;50.958;7.012;2022-10-16T12:28:31;1.77;;;1.00;;
6420;SDS011;3243;50.958;7.012;2022-10-16T12:31:05;1.53;;;1.33;;
6420;SDS011;3243;50.958;7.012;2022-10-16T12:33:39;2.40;;;1.00;;
6420;SDS011;3243;50.958;7.012;2022-10-16T12:36:27;2.90;;;1.57;;
6420;SDS011;3243;50.958;7.012;2022-10-16T12:38:54;2.50;;;1.40;;
6420;SDS011;3243;50.958;7.012;2022-10-16T12:41:27;2.73;;;1.57;;
6420;SDS011;3243;50.958;7.012;2022-10-16T12:43:59;2.63;;;1.10;;
6420;SDS011;3243;50.958;7.012;2022-10-16T12:51:42;1.00;;;0.90;;
6420;SDS011;3243;50.958;7.012;2022-10-16T12:59:19;2.27;;;1.00;;
6420;SDS011;3243;50.958;7.012;2022-10-16T13:01:57;4.87;;;1.20;;
6420;SDS011;3243;50.958;7.012;2022-10-16T13:04:53;1.30;;;1.03;;
6420;SDS011;3243;50.958;7.012;2022-10-16T13:22:13;2.95;;;1.00;;
6420;SDS011;3243;50.958;7.012;2022-10-16T13:27:40;2.10;;;1.10;;
6420;SDS011;3243;50.958;7.012;2022-10-16T13:30:26;1.23;;;1.00;;
6420;SDS011;3243;50.958;7.012;2022-10-16T13:36:01;2.08;;;1.27;;
6420;SDS011;3243;50.958;7.012;2022-10-16T13:38:30;1.50;;;1.00;;
6420;SDS011;3243;50.958;7.012;2022-10-16T13:41:14;1.43;;;1.00;;
6420;SDS011;3243;50.958;7.012;2022-10-16T13:43:47;2.90;;;0.90;;
6420;SDS011;3243;50.958;7.012;2022-10-16T13:46:18;1.23;;;1.10;;
6420;SDS011;3243;50.958;7.012;2022-10-16T13:48:59;3.53;;;1.10;;
6420;SDS011;3243;50.958;7.012;2022-10-16T13:51:28;7.00;;;1.75;;
6420;SDS011;3243;50.958;7.012;2022-10-16T13:53:55;1.30;;;1.20;;
6420;SDS011;3243;50.958;7.012;2022-10-16T13:56:27;4.72;;;1.25;;
6420;SDS011;3243;50.958;7.012;2022-10-16T13:59:05;2.87;;;1.30;;
6420;SDS011;3243;50.958;7.012;2022-10-16T14:01:53;2.73;;;1.50;;
6420;SDS011;3243;50.958;7.012;2022-10-16T14:04:23;1.70;;;1.27;;
6420;SDS011;3243;50.958;7.012;2022-10-16T14:06:51;1.40;;;1.30;;
6420;SDS011;3243;50.958;7.012;2022-10-16T14:11:53;1.38;;;1.15;;
6420;SDS011;3243;50.958;7.012;2022-10-16T14:14:34;1.77;;;1.20;;
6420;SDS011;3243;50.958;7.012;2022-10-16T14:17:13;1.83;;;1.20;;
6420;SDS011;3243;50.958;7.012;2022-10-16T14:19:44;1.75;;;1.40;;
6420;SDS011;3243;50.958;7.012;2022-10-16T14:25:00;1.20;;;1.10;;
6420;SDS011;3243;50.958;7.012;2022-10-16T14:27:32;1.70;;;1.07;;
6420;SDS011;3243;50.958;7.012;2022-10-16T14:30:48;1.30;;;1.20;;
6420;SDS011;3243;50.958;7.012;2022-10-16T14:32:55;3.03;;;1.02;;
6420;SDS011;3243;50.958;7.012;2022-10-16T14:35:31;2.58;;;1.30;;
6420;SDS011;3243;50.958;7.012;2022-10-16T14:38:03;1.50;;;1.17;;
6420;SDS011;3243;50.958;7.012;2022-10-16T14:40:33;1.48;;;1.00;;
6420;SDS011;3243;50.958;7.012;2022-10-16T14:43:03;1.40;;;1.30;;
6420;SDS011;3243;50.958;7.012;2022-10-16T14:45:32;3.30;;;1.50;;
6420;SDS011;3243;50.958;7.012;2022-10-16T14:48:02;1.83;;;1.40;;
6420;SDS011;3243;50.958;7.012;2022-10-16T14:50:45;3.20;;;1.33;;
6420;SDS011;3243;50.958;7.012;2022-10-16T14:53:12;1.70;;;1.20;;
6420;SDS011;3243;50.958;7.012;2022-10-16T14:55:39;3.93;;;1.57;;
6420;SDS011;3243;50.958;7.012;2022-10-16T14:58:13;1.73;;;1.30;;
6420;SDS011;3243;50.958;7.012;2022-10-16T15:00:45;1.30;;;1.20;;
6420;SDS011;3243;50.958;7.012;2022-10-16T15:03:12;1.30;;;1.07;;
6420;SDS011;3243;50.958;7.012;2022-10-16T15:05:39;2.13;;;1.40;;
6420;SDS011;3243;50.958;7.012;2022-10-16T15:08:06;3.13;;;1.30;;
6420;SDS011;3243;50.958;7.012;2022-10-16T15:10:35;1.10;;;1.00;;
6420;SDS011;3243;50.958;7.012;2022-10-16T15:13:06;2.33;;;1.30;;
6420;SDS011;3243;50.958;7.012;2022-10-16T15:18:03;2.03;;;1.30;;
6420;SDS011;3243;50.958;7.012;2022-10-16T15:20:32;1.60;;;1.40;;
6420;SDS011;3243;50.958;7.012;2022-10-16T15:23:04;2.87;;;1.40;;
6420;SDS011;3243;50.958;7.012;2022-10-16T15:25:41;2.80;;;1.60;;
6420;SDS011;3243;50.958;7.012;2022-10-16T15:28:13;2.07;;;1.53;;
6420;SDS011;3243;50.958;7.012;2022-10-16T15:30:40;2.75;;;1.80;;
6420;SDS011;3243;50.958;7.012;2022-10-16T15:33:12;1.40;;;1.30;;
6420;SDS011;3243;50.958;7.012;2022-10-16T15:35:41;2.43;;;1.80;;
6420;SDS011;3243;50.958;7.012;2022-10-16T15:38:11;3.73;;;1.87;;
6420;SDS011;3243;50.958;7.012;2022-10-16T15:40:38;2.83;;;2.10;;
6420;SDS011;3243;50.958;7.012;2022-10-16T15:43:06;3.30;;;1.60;;
6420;SDS011;3243;50.958;7.012;2022-10-16T15:45:33;2.50;;;1.90;;
6420;SDS011;3243;50.958;7.012;2022-10-16T15:48:00;3.97;;;3.57;;
6420;SDS011;3243;50.958;7.012;2022-10-16T15:50:27;4.73;;;2.10;;
6420;SDS011;3243;50.958;7.012;2022-10-16T15:52:53;3.80;;;2.60;;
6420;SDS011;3243;50.958;7.012;2022-10-16T15:55:20;4.70;;;2.67;;
6420;SDS011;3243;50.958;7.012;2022-10-16T15:57:47;4.20;;;3.20;;
6420;SDS011;3243;50.958;7.012;2022-10-16T16:00:15;5.13;;;3.35;;
6420;SDS011;3243;50.958;7.012;2022-10-16T16:02:44;5.30;;;3.00;;
6420;SDS011;3243;50.958;7.012;2022-10-16T16:05:17;4.47;;;3.30;;
6420;SDS011;3243;50.958;7.012;2022-10-16T16:07:44;7.10;;;5.50;;
6420;SDS011;3243;50.958;7.012;2022-10-16T16:10:11;5.27;;;3.20;;
6420;SDS011;3243;50.958;7.012;2022-10-16T16:12:38;4.50;;;3.10;;
6420;SDS011;3243;50.958;7.012;2022-10-16T16:15:05;2.60;;;2.40;;
6420;SDS011;3243;50.958;7.012;2022-10-16T16:17:33;5.40;;;2.60;;
6420;SDS011;3243;50.958;7.012;2022-10-16T16:20:00;3.40;;;2.50;;
6420;SDS011;3243;50.958;7.012;2022-10-16T16:22:28;3.23;;;2.20;;
6420;SDS011;3243;50.958;7.012;2022-10-16T16:24:56;4.23;;;2.60;;
6420;SDS011;3243;50.958;7.012;2022-10-16T16:27:23;2.50;;;2.13;;
6420;SDS011;3243;50.958;7.012;2022-10-16T16:29:51;6.70;;;4.00;;
6420;SDS011;3243;50.958;7.012;2022-10-16T16:32:19;3.83;;;3.10;;
6420;SDS011;3243;50.958;7.012;2022-10-16T16:34:46;3.43;;;3.03;;
6420;SDS011;3243;50.958;7.012;2022-10-16T16:37:13;4.60;;;2.47;;
6420;SDS011;3243;50.958;7.012;2022-10-16T16:39:40;3.77;;;2.50;;
6420;SDS011;3243;50.958;7.012;2022-10-16T16:42:06;2.60;;;2.10;;
6420;SDS011;3243;50.958;7.012;2022-10-16T16:44:33;5.73;;;1.77;;
6420;SDS011;3243;50.958;7.012;2022-10-16T16:47:03;3.80;;;2.57;;
6420;SDS011;3243;50.958;7.012;2022-10-16T16:49:30;3.70;;;1.97;;
6420;SDS011;3243;50.958;7.012;2022-10-16T16:51:57;2.60;;;1.60;;
6420;SDS011;3243;50.958;7.012;2022-10-16T16:54:24;1.53;;;1.43;;
6420;SDS011;3243;50.958;7.012;2022-10-16T16:56:51;2.83;;;2.20;;
6420;SDS011;3243;50.958;7.012;2022-10-16T16:59:18;2.93;;;1.60;;
6420;SDS011;3243;50.958;7.012;2022-10-16T17:01:48;3.53;;;1.50;;
6420;SDS011;3243;50.958;7.012;2022-10-16T17:04:22;2.90;;;1.77;;
6420;SDS011;3243;50.958;7.012;2022-10-16T17:06:48;4.00;;;1.40;;
6420;SDS011;3243;50.958;7.012;2022-10-16T17:09:15;2.40;;;1.63;;
6420;SDS011;3243;50.958;7.012;2022-10-16T17:11:42;3.20;;;1.43;;
6420;SDS011;3243;50.958;7.012;2022-10-16T17:14:10;1.87;;;1.40;;
6420;SDS011;3243;50.958;7.012;2022-10-16T17:16:38;4.50;;;1.90;;
6420;SDS011;3243;50.958;7.012;2022-10-16T17:19:06;1.70;;;1.50;;
6420;SDS011;3243;50.958;7.012;2022-10-16T17:21:34;2.23;;;1.60;;
6420;SDS011;3243;50.958;7.012;2022-10-16T17:24:01;1.87;;;1.60;;
6420;SDS011;3243;50.958;7.012;2022-10-16T17:26:29;3.27;;;1.60;;
6420;SDS011;3243;50.958;7.012;2022-10-16T17:28:57;1.53;;;1.40;;
6420;SDS011;3243;50.958;7.012;2022-10-16T17:31:30;1.63;;;1.53;;
6420;SDS011;3243;50.958;7.012;2022-10-16T17:34:00;2.47;;;2.23;;
6420;SDS011;3243;50.958;7.012;2022-10-16T17:36:29;3.70;;;2.00;;
6420;SDS011;3243;50.958;7.012;2022-10-16T17:38:59;3.90;;;2.00;;
6420;SDS011;3243;50.958;7.012;2022-10-16T17:41:30;8.57;;;3.07;;
6420;SDS011;3243;50.958;7.012;2022-10-16T17:43:57;4.20;;;2.07;;
6420;SDS011;3243;50.958;7.012;2022-10-16T17:46:24;3.57;;;1.90;;
6420;SDS011;3243;50.958;7.012;2022-10-16T17:48:52;2.07;;;1.60;;
6420;SDS011;3243;50.958;7.012;2022-10-16T17:51:21;2.40;;;1.77;;
6420;SDS011;3243;50.958;7.012;2022-10-16T17:53:58;2.40;;;1.67;;
6420;SDS011;3243;50.958;7.012;2022-10-16T17:56:26;5.03;;;1.70;;
6420;SDS011;3243;50.958;7.012;2022-10-16T17:58:54;3.13;;;1.60;;
6420;SDS011;3243;50.958;7.012;2022-10-16T18:01:26;4.23;;;1.90;;
6420;SDS011;3243;50.958;7.012;2022-10-16T18:03:56;3.13;;;2.03;;
6420;SDS011;3243;50.958;7.012;2022-10-16T18:06:24;2.63;;;1.80;;
6420;SDS011;3243;50.958;7.012;2022-10-16T18:08:52;3.43;;;2.00;;
6420;SDS011;3243;50.958;7.012;2022-10-16T18:11:20;2.70;;;1.90;;
6420;SDS011;3243;50.958;7.012;2022-10-16T18:13:50;4.50;;;1.77;;
6420;SDS011;3243;50.958;7.012;2022-10-16T18:16:18;1.90;;;1.70;;
6420;SDS011;3243;50.958;7.012;2022-10-16T18:18:45;1.63;;;1.50;;
6420;SDS011;3243;50.958;7.012;2022-10-16T18:21:14;3.43;;;2.10;;
6420;SDS011;3243;50.958;7.012;2022-10-16T18:23:43;1.83;;;1.63;;